Kezdőlap
METAR-TAF:

METAR-TAF

Repülőterek :

Rosecrans Memorial Airport

Saint Joseph, Missouri, Amerikai Egyesült Államok

földrajzi szélesség: 39-46-05N, földrajzi hosszúság: 094-54-33W, magasság: 251 m

Jelenlegi meteorológiai megfigyelések

A jelentés 37 perccel ezelõtt készült, 15:53 UTC
Kelet-északkeleti szél 6 kt
Hőmérséklet 13°C
Páratartalom 62%
Légköri nyomás 1026 hPa
Látótávolság: 16.1 km
Derült ég

METAR: KSTJ 111553Z 06006KT 10SM CLR 13/06 A3030 RMK AO2 SLP262 T01280061

Idő: 11:30 (16:30 UTC)

Előrejelzés

A jelentés 5 órával és 10 perccel ezelõtt készült, 11:20 UTC
Az előrejelzés 11-én 12 óra UTC és 12-én 12 óra UTC között érvényes
Északkeleti szél 7 kt
Látótávolság: 10 km
Szakadozott felhőzet 12000 lábon
11-én 1500 órától UTC szerint
Északkeleti szél 8 kt
Látótávolság: 10 km
Szórványos felhőzet 6000 lábon
Szakadozott felhőzet 12000 lábon

TAF: KSTJ 111120Z 1112/1212 04007KT P6SM BKN120 FM111500 05008KT P6SM SCT060 BKN120

Meteorológiai megfigyelések és előrejelzések több, mint 4000 repülőtéren (METAR és TAF jelentéseket).

A térképen piros és sárga pontok jelzik az elérhető meteorológiai állomásokat.

Mozgassa az egeret a pont fölött, hogy megjelenjen az állomás neve.

Azután kattintson az időjárási megfigyelések és előrejelzések megtekintéséhez.

A térkép megváltoztatása: kattintson a fekete keresztel jelölt zöld gombra ráközelítéshez, a vonallal jelölt zöld gombra távolításhoz, vagy a zöld nyilakra a szomszédos térképek eléréséhez.


METAR-TAF: